Time;durP1;ratioP1;P1;durP2;ratioP2;P2;SDS_P1;SDS_P2;PMS_P1;PMS_P2;Temp;Humidity;BMP_temperature;BMP_pressure;BME280_temperature;BME280_humidity;BME280_pressure;Samples;Min_cycle;Max_cycle;Signal;HPM_P1;HPM_P2
2022/07/06 00:00:54;;;;;;;5.07;1.80;;;16.20;99.90;;;;;;5019115;28;20227;-73
2022/07/06 00:03:21;;;;;;;4.40;2.20;;;16.20;99.90;;;;;;5013017;28;20286;-73
2022/07/06 00:05:49;;;;;;;4.22;2.20;;;16.10;99.90;;;;;;5013667;28;20200;-73
2022/07/06 00:08:16;;;;;;;5.43;2.08;;;15.90;99.90;;;;;;5013029;28;20196;-73
2022/07/06 00:10:43;;;;;;;3.53;1.92;;;16.00;99.90;;;;;;5011792;28;20618;-73
2022/07/06 00:13:11;;;;;;;3.70;1.70;;;15.80;99.90;;;;;;5012629;28;20667;-74
2022/07/06 00:15:38;;;;;;;3.70;1.80;;;15.80;99.90;;;;;;5012129;28;20232;-74
2022/07/06 00:18:05;;;;;;;4.55;1.85;;;15.80;99.90;;;;;;5009186;28;20594;-74
2022/07/06 00:20:32;;;;;;;3.42;1.40;;;15.80;99.90;;;;;;5033191;28;20215;-74
2022/07/06 00:23:00;;;;;;;3.15;1.70;;;16.00;99.90;;;;;;5020107;28;20640;-74
2022/07/06 00:25:27;;;;;;;5.72;2.00;;;15.90;99.90;;;;;;5013616;28;20251;-73
2022/07/06 00:27:54;;;;;;;3.67;1.48;;;15.90;99.90;;;;;;5013088;28;20636;-73
2022/07/06 00:30:21;;;;;;;3.50;1.55;;;15.90;99.90;;;;;;5012530;28;20204;-74
2022/07/06 00:32:48;;;;;;;3.28;1.48;;;16.00;99.90;;;;;;5012369;28;20208;-73
2022/07/06 00:35:15;;;;;;;3.35;1.55;;;16.10;99.90;;;;;;5012663;28;20193;-74
2022/07/06 00:37:42;;;;;;;3.80;1.60;;;15.90;99.90;;;;;;5020460;28;20208;-74
2022/07/06 00:40:11;;;;;;;3.45;1.63;;;15.90;99.90;;;;;;5012695;28;20749;-73
2022/07/06 00:42:42;;;;;;;3.33;1.70;;;15.90;99.90;;;;;;5013386;28;20204;-74
2022/07/06 00:45:11;;;;;;;5.32;1.73;;;15.90;99.70;;;;;;5013659;28;20204;-74
2022/07/06 00:47:39;;;;;;;2.67;1.42;;;16.00;98.60;;;;;;5012926;28;20192;-74
2022/07/06 00:50:20;;;;;;;3.75;1.95;;;15.90;97.40;;;;;;5026517;28;20204;-74
2022/07/06 00:52:49;;;;;;;2.40;1.50;;;15.90;98.70;;;;;;5012690;28;20208;-74
2022/07/06 00:55:18;;;;;;;4.22;1.88;;;16.00;99.30;;;;;;5012940;28;20266;-74
2022/07/06 00:57:46;;;;;;;2.28;1.35;;;16.10;99.70;;;;;;5019973;28;20701;-74
2022/07/06 01:00:17;;;;;;;4.85;1.60;;;15.90;99.90;;;;;;5031546;28;20219;-68
2022/07/06 01:02:44;;;;;;;4.13;1.80;;;15.90;99.90;;;;;;5011096;28;20259;-68
2022/07/06 01:05:13;;;;;;;3.70;1.40;;;15.90;99.90;;;;;;5012600;28;20283;-68
2022/07/06 01:07:41;;;;;;;3.35;1.73;;;15.80;99.90;;;;;;5030531;28;20261;-69
2022/07/06 01:10:10;;;;;;;1.77;1.50;;;15.50;99.90;;;;;;5014840;28;20220;-69
2022/07/06 01:12:40;;;;;;;1.58;1.48;;;15.50;99.90;;;;;;5011871;28;20303;-69
2022/07/06 01:15:09;;;;;;;2.45;1.85;;;15.50;99.90;;;;;;5011682;28;20240;-68
2022/07/06 01:17:38;;;;;;;1.25;1.25;;;15.50;99.90;;;;;;5011425;28;20200;-69
2022/07/06 01:20:16;;;;;;;1.77;1.40;;;15.40;99.90;;;;;;5020816;28;20274;-68
2022/07/06 01:22:42;;;;;;;2.80;1.47;;;15.40;99.90;;;;;;5019433;28;20240;-68
2022/07/06 01:25:10;;;;;;;3.60;1.60;;;15.50;99.90;;;;;;5011504;28;20258;-68
2022/07/06 01:27:39;;;;;;;8.23;2.07;;;15.60;99.90;;;;;;5010145;28;20231;-69
2022/07/06 01:30:09;;;;;;;5.17;2.10;;;15.50;99.90;;;;;;5024133;28;20208;-68
2022/07/06 01:32:36;;;;;;;4.10;1.90;;;15.40;99.90;;;;;;5012167;28;20204;-68
2022/07/06 01:35:05;;;;;;;1.43;1.33;;;15.30;99.90;;;;;;5012195;28;20630;-68
2022/07/06 01:37:34;;;;;;;4.90;1.70;;;15.40;99.90;;;;;;5022683;28;20647;-68
2022/07/06 01:40:01;;;;;;;2.07;1.50;;;15.40;99.90;;;;;;5024882;28;20254;-68
2022/07/06 01:42:28;;;;;;;1.63;1.20;;;15.50;99.90;;;;;;5031275;28;20238;-68
2022/07/06 01:44:55;;;;;;;2.25;1.60;;;15.50;99.90;;;;;;5024916;28;20281;-68
2022/07/06 01:47:22;;;;;;;3.03;1.70;;;15.60;99.90;;;;;;5031752;28;20262;-68
2022/07/06 01:49:49;;;;;;;7.37;4.80;;;15.60;99.90;;;;;;5011626;28;20292;-68
2022/07/06 01:52:16;;;;;;;3.83;2.00;;;15.60;99.90;;;;;;5014220;28;20660;-69
2022/07/06 01:54:45;;;;;;;3.30;1.40;;;15.60;99.90;;;;;;5010608;28;20528;-68
2022/07/06 01:57:12;;;;;;;4.70;1.47;;;15.50;99.90;;;;;;5010681;28;20283;-69
2022/07/06 01:59:39;;;;;;;1.47;1.30;;;15.50;99.90;;;;;;5011747;28;20266;-68
2022/07/06 02:02:06;;;;;;;3.90;1.30;;;15.50;99.90;;;;;;5011382;28;20212;-68
2022/07/06 02:04:33;;;;;;;2.23;1.50;;;15.50;99.90;;;;;;5011761;28;20259;-68
2022/07/06 02:07:01;;;;;;;3.43;1.73;;;15.50;99.90;;;;;;5011728;28;20287;-68
2022/07/06 02:09:28;;;;;;;4.20;1.30;;;15.40;99.90;;;;;;5011606;28;20278;-68
2022/07/06 02:11:56;;;;;;;1.50;1.40;;;15.40;99.90;;;;;;5011708;28;20200;-68
2022/07/06 02:14:23;;;;;;;3.80;1.92;;;15.40;99.90;;;;;;5011649;28;20200;-68
2022/07/06 02:16:50;;;;;;;2.43;1.30;;;15.40;99.90;;;;;;5011712;28;20199;-68
2022/07/06 02:19:17;;;;;;;2.50;1.33;;;15.40;99.90;;;;;;5011257;28;20584;-68
2022/07/06 02:21:44;;;;;;;7.50;1.97;;;15.40;99.90;;;;;;5012733;28;20654;-68
2022/07/06 02:24:11;;;;;;;5.27;1.90;;;15.30;99.90;;;;;;5018116;28;20228;-68
2022/07/06 02:26:38;;;;;;;3.73;1.33;;;15.30;99.90;;;;;;5018431;28;20200;-69
2022/07/06 02:29:06;;;;;;;2.90;1.27;;;15.30;99.90;;;;;;5017535;28;20242;-68
2022/07/06 02:31:33;;;;;;;4.17;1.93;;;15.30;99.90;;;;;;5018160;28;20606;-68
2022/07/06 02:34:00;;;;;;;3.47;1.30;;;15.20;99.90;;;;;;5018032;28;20570;-69
2022/07/06 02:36:27;;;;;;;3.63;1.30;;;15.20;99.90;;;;;;5018158;28;20619;-69
2022/07/06 02:38:54;;;;;;;3.00;1.50;;;15.30;99.90;;;;;;5018003;28;20200;-68
2022/07/06 02:41:21;;;;;;;3.70;1.57;;;15.20;99.90;;;;;;5017498;28;20220;-68
2022/07/06 02:43:48;;;;;;;3.80;2.00;;;15.30;99.90;;;;;;5018146;28;20625;-68
2022/07/06 02:46:16;;;;;;;4.93;1.43;;;15.30;99.90;;;;;;5017889;28;20204;-68
2022/07/06 02:48:43;;;;;;;3.43;1.40;;;15.30;99.90;;;;;;5017701;28;20617;-69
2022/07/06 02:51:10;;;;;;;5.47;2.00;;;15.20;99.90;;;;;;5017169;28;20231;-68
2022/07/06 02:53:37;;;;;;;1.73;1.63;;;15.20;99.90;;;;;;5017456;28;20243;-68
2022/07/06 02:56:04;;;;;;;4.33;1.50;;;15.20;99.90;;;;;;5017923;28;20201;-68
2022/07/06 02:58:31;;;;;;;3.53;1.80;;;15.10;99.90;;;;;;5017955;28;20239;-68
2022/07/06 03:00:58;;;;;;;2.50;1.50;;;15.10;99.90;;;;;;5016921;28;20678;-68
2022/07/06 03:03:27;;;;;;;2.80;1.40;;;15.20;99.90;;;;;;5017840;28;20270;-68
2022/07/06 03:05:54;;;;;;;2.97;1.50;;;15.20;99.90;;;;;;5017701;28;20234;-68
2022/07/06 03:08:21;;;;;;;2.47;1.60;;;15.10;99.90;;;;;;5017962;28;20251;-69
2022/07/06 03:10:48;;;;;;;3.87;1.60;;;15.10;99.90;;;;;;5017157;28;20244;-68
2022/07/06 03:13:15;;;;;;;3.77;1.70;;;15.00;99.90;;;;;;5017962;28;20243;-68
2022/07/06 03:15:42;;;;;;;4.50;1.50;;;15.10;99.90;;;;;;5017595;28;20228;-68
2022/07/06 03:18:09;;;;;;;4.67;1.73;;;15.00;99.90;;;;;;5017346;28;20196;-68
2022/07/06 03:20:37;;;;;;;2.87;1.60;;;15.00;99.90;;;;;;5017097;28;20228;-69
2022/07/06 03:23:04;;;;;;;3.63;1.50;;;15.00;99.90;;;;;;5017654;28;20286;-68
2022/07/06 03:25:32;;;;;;;3.13;1.33;;;15.00;99.90;;;;;;5017038;28;20291;-69
2022/07/06 03:27:59;;;;;;;1.83;1.37;;;15.00;99.90;;;;;;5017387;28;20291;-68
2022/07/06 03:30:26;;;;;;;4.97;1.57;;;15.00;99.90;;;;;;5017071;28;20262;-68
2022/07/06 03:32:53;;;;;;;1.40;1.20;;;15.00;99.90;;;;;;5013108;28;20247;-68
2022/07/06 03:35:20;;;;;;;3.80;1.70;;;15.00;99.90;;;;;;5013514;28;20247;-68
2022/07/06 03:37:49;;;;;;;4.70;1.40;;;15.00;99.90;;;;;;5015212;28;20208;-68
2022/07/06 03:40:16;;;;;;;2.77;1.50;;;15.00;99.90;;;;;;5017675;28;20227;-68
2022/07/06 03:42:43;;;;;;;5.67;1.60;;;15.00;99.90;;;;;;5020568;28;20294;-68
2022/07/06 03:45:11;;;;;;;6.10;2.07;;;14.90;99.90;;;;;;5032269;28;20243;-68
2022/07/06 03:47:38;;;;;;;2.47;1.47;;;14.90;99.90;;;;;;5025223;28;20200;-68
2022/07/06 03:50:06;;;;;;;3.37;1.60;;;15.00;99.90;;;;;;5013192;28;20197;-68
2022/07/06 03:52:33;;;;;;;3.00;1.50;;;15.00;99.90;;;;;;5013220;28;20204;-68
2022/07/06 03:55:01;;;;;;;6.80;1.87;;;15.20;99.90;;;;;;5013461;28;20278;-68
2022/07/06 03:57:28;;;;;;;2.23;1.30;;;15.10;99.90;;;;;;5012392;28;20633;-68
2022/07/06 03:59:55;;;;;;;7.23;1.77;;;15.00;99.90;;;;;;5013189;28;20648;-68
2022/07/06 04:02:22;;;;;;;4.77;1.83;;;14.90;99.90;;;;;;5013559;28;20655;-68
2022/07/06 04:04:49;;;;;;;3.43;1.53;;;15.00;99.90;;;;;;5013010;28;20603;-68
2022/07/06 04:07:16;;;;;;;3.13;1.40;;;15.20;99.90;;;;;;5013690;28;20610;-68
2022/07/06 04:09:43;;;;;;;4.87;1.50;;;15.20;99.90;;;;;;5020310;28;20620;-69
2022/07/06 04:12:11;;;;;;;3.00;1.53;;;15.20;99.90;;;;;;5012062;28;20548;-68
2022/07/06 04:14:38;;;;;;;3.37;1.43;;;15.00;99.90;;;;;;5019640;28;20239;-73
2022/07/06 04:19:46;;;;;;;3.30;1.30;;;15.10;99.90;;;;;;5018440;28;20200;-74
2022/07/06 04:22:13;;;;;;;3.07;1.40;;;15.20;99.90;;;;;;5014084;28;20279;-74
2022/07/06 04:24:40;;;;;;;3.30;1.47;;;15.20;99.90;;;;;;5013792;28;20615;-74
2022/07/06 04:27:07;;;;;;;5.03;1.20;;;15.10;99.90;;;;;;5012534;28;20196;-74
2022/07/06 04:29:36;;;;;;;4.03;1.57;;;15.20;99.90;;;;;;5013655;28;20678;-74
2022/07/06 04:32:03;;;;;;;3.27;1.47;;;15.30;99.90;;;;;;5012031;28;20204;-73
2022/07/06 04:34:30;;;;;;;2.87;1.83;;;15.40;99.90;;;;;;5013543;28;20346;-73
2022/07/06 04:36:57;;;;;;;2.40;1.47;;;15.40;99.90;;;;;;5012500;28;20208;-73
2022/07/06 04:39:24;;;;;;;3.23;1.80;;;15.30;99.90;;;;;;5011579;28;20581;-74
2022/07/06 04:41:51;;;;;;;3.37;1.50;;;15.30;99.90;;;;;;5012704;28;20589;-73
2022/07/06 04:44:18;;;;;;;3.17;1.30;;;15.50;99.90;;;;;;5013192;28;20218;-74
2022/07/06 04:46:46;;;;;;;6.17;2.10;;;15.50;99.90;;;;;;5012666;28;20244;-74
2022/07/06 04:49:13;;;;;;;5.73;1.80;;;15.70;99.90;;;;;;5032758;28;20204;-74
2022/07/06 04:51:40;;;;;;;3.23;1.60;;;15.70;99.90;;;;;;5031657;28;20203;-74
2022/07/06 04:54:07;;;;;;;2.40;1.63;;;15.50;99.90;;;;;;5014327;28;20282;-74
2022/07/06 04:56:34;;;;;;;2.67;1.30;;;15.60;99.90;;;;;;5008434;28;20212;-73
2022/07/06 04:59:01;;;;;;;2.83;1.60;;;15.70;99.90;;;;;;5024090;28;20294;-74
2022/07/06 05:01:28;;;;;;;3.03;1.67;;;15.80;99.90;;;;;;5017317;28;20220;-73
2022/07/06 05:03:57;;;;;;;5.03;1.60;;;15.70;99.90;;;;;;5031368;28;20654;-73
2022/07/06 05:06:23;;;;;;;5.67;2.30;;;15.60;99.90;;;;;;5031748;28;20254;-73
2022/07/06 05:08:50;;;;;;;3.45;1.80;;;15.80;99.90;;;;;;5032094;28;20231;-73
2022/07/06 05:11:17;;;;;;;2.88;1.80;;;15.70;99.90;;;;;;5018388;28;20231;-73
2022/07/06 05:13:45;;;;;;;4.37;1.60;;;15.80;99.90;;;;;;5011590;28;20257;-73
2022/07/06 05:16:12;;;;;;;4.43;1.47;;;16.20;99.90;;;;;;5012437;28;20268;-73
2022/07/06 05:18:39;;;;;;;5.43;2.00;;;15.80;99.90;;;;;;5011822;28;20291;-73
2022/07/06 05:21:08;;;;;;;3.55;1.85;;;15.80;99.90;;;;;;5012035;28;20228;-73
2022/07/06 05:23:35;;;;;;;2.10;1.58;;;15.90;99.90;;;;;;5011981;28;20432;-73
2022/07/06 05:26:01;;;;;;;2.50;1.70;;;16.10;99.90;;;;;;5012551;28;20201;-73
2022/07/06 05:28:29;;;;;;;6.20;1.80;;;16.00;99.90;;;;;;5015761;28;20239;-73
2022/07/06 05:30:55;;;;;;;7.87;1.83;;;15.90;99.90;;;;;;5011846;28;20243;-73
2022/07/06 05:33:22;;;;;;;5.80;2.00;;;16.00;99.90;;;;;;5011609;28;20200;-73
2022/07/06 05:35:49;;;;;;;2.33;1.80;;;16.10;99.90;;;;;;5011883;28;20270;-72
2022/07/06 05:38:18;;;;;;;4.10;1.83;;;16.20;99.90;;;;;;5011883;28;20247;-73
2022/07/06 05:40:45;;;;;;;7.90;3.17;;;16.20;99.90;;;;;;5011708;28;20200;-73
2022/07/06 05:43:12;;;;;;;3.93;1.67;;;16.20;99.90;;;;;;5010986;28;20231;-73
2022/07/06 05:45:39;;;;;;;4.50;2.00;;;16.10;99.90;;;;;;5011474;28;20339;-73
2022/07/06 05:50:51;;;;;;;2.97;1.87;;;16.30;99.90;;;;;;5014970;28;20202;-73
2022/07/06 05:53:19;;;;;;;5.93;1.75;;;16.40;99.90;;;;;;5031917;28;20538;-73
2022/07/06 05:55:46;;;;;;;5.78;1.60;;;17.00;99.90;;;;;;5031838;28;20290;-73
2022/07/06 05:58:13;;;;;;;4.00;1.67;;;16.90;99.90;;;;;;5030619;28;20242;-73
2022/07/06 06:00:40;;;;;;;3.40;1.58;;;16.90;99.90;;;;;;5029767;28;20257;-73
2022/07/06 06:03:07;;;;;;;5.70;1.42;;;16.90;99.90;;;;;;5026556;28;20666;-73
2022/07/06 06:05:34;;;;;;;3.08;1.30;;;17.00;99.90;;;;;;5011872;28;20734;-72
2022/07/06 06:08:01;;;;;;;2.97;1.45;;;16.70;99.90;;;;;;5026851;28;20258;-73
2022/07/06 06:10:31;;;;;;;5.65;1.60;;;16.60;99.90;;;;;;5011795;28;20659;-73
2022/07/06 06:12:58;;;;;;;7.55;1.92;;;16.70;99.90;;;;;;5010936;28;20246;-73
2022/07/06 06:15:26;;;;;;;4.90;1.63;;;17.00;99.90;;;;;;5011644;28;20259;-73
2022/07/06 06:17:53;;;;;;;3.30;1.33;;;16.90;99.90;;;;;;5011764;28;20258;-72
2022/07/06 06:20:20;;;;;;;2.33;1.27;;;17.10;99.90;;;;;;5010661;28;20200;-73
2022/07/06 06:22:49;;;;;;;6.63;2.03;;;16.80;99.90;;;;;;5011318;28;20742;-73
2022/07/06 06:25:16;;;;;;;6.75;1.50;;;16.90;99.90;;;;;;5010794;28;20240;-73
2022/07/06 06:27:45;;;;;;;4.72;1.85;;;17.00;99.90;;;;;;5010568;28;20200;-73
2022/07/06 06:30:13;;;;;;;4.55;1.50;;;16.50;99.90;;;;;;5010356;28;20244;-73
2022/07/06 06:32:41;;;;;;;5.47;1.58;;;16.90;99.90;;;;;;5010789;28;20204;-73
2022/07/06 06:35:09;;;;;;;6.00;1.70;;;17.00;99.90;;;;;;5010728;28;20214;-72
2022/07/06 06:37:36;;;;;;;4.88;1.60;;;17.00;99.30;;;;;;5029211;28;20219;-72
2022/07/06 06:40:03;;;;;;;2.33;1.45;;;17.00;98.70;;;;;;5013292;28;20643;-73
2022/07/06 06:42:30;;;;;;;7.22;1.45;;;16.80;97.30;;;;;;5011053;28;20315;-73
2022/07/06 06:44:59;;;;;;;4.00;1.70;;;16.90;99.90;;;;;;5011133;28;20204;-73
2022/07/06 06:47:26;;;;;;;5.47;1.50;;;17.10;96.80;;;;;;5010981;28;20246;-73
2022/07/06 06:49:53;;;;;;;3.42;1.20;;;17.00;93.60;;;;;;5010684;28;20236;-73
2022/07/06 06:52:19;;;;;;;4.82;1.38;;;17.10;94.40;;;;;;5011287;28;20205;-73
2022/07/06 06:54:46;;;;;;;3.17;1.20;;;17.40;92.70;;;;;;5010868;28;20570;-73
2022/07/06 06:57:13;;;;;;;3.22;1.40;;;17.20;91.70;;;;;;5011157;28;20743;-73
2022/07/06 06:59:40;;;;;;;6.25;1.90;;;17.40;90.60;;;;;;5010613;28;20303;-72
2022/07/06 07:02:09;;;;;;;3.65;1.52;;;17.40;87.20;;;;;;5011302;28;20627;-73
2022/07/06 07:04:35;;;;;;;5.28;2.13;;;17.50;83.90;;;;;;5010527;28;20296;-72
2022/07/06 07:07:03;;;;;;;4.38;1.50;;;17.60;85.40;;;;;;5010297;28;20243;-73
2022/07/06 07:09:29;;;;;;;6.30;1.48;;;17.50;86.00;;;;;;5012203;28;20205;-75
2022/07/06 07:11:57;;;;;;;5.28;1.30;;;17.20;80.80;;;;;;5013748;28;20258;-75
2022/07/06 07:14:27;;;;;;;1.15;0.80;;;17.20;82.00;;;;;;5013914;28;20298;-73
2022/07/06 07:16:54;;;;;;;4.75;1.02;;;17.20;75.50;;;;;;5015175;28;20204;-73
2022/07/06 07:19:22;;;;;;;5.65;1.08;;;17.30;76.60;;;;;;5013801;28;20246;-73
2022/07/06 07:21:50;;;;;;;4.45;1.23;;;17.50;75.50;;;;;;5014543;28;20307;-73
2022/07/06 07:24:17;;;;;;;2.75;1.23;;;17.50;73.10;;;;;;5017318;28;20266;-69
2022/07/06 07:26:44;;;;;;;4.30;1.40;;;17.60;68.60;;;;;;5014656;28;20285;-73
2022/07/06 07:29:11;;;;;;;1.00;0.77;;;17.10;64.90;;;;;;5012635;28;20200;-73
2022/07/06 07:31:37;;;;;;;2.28;1.00;;;17.00;66.60;;;;;;5013613;28;20196;-73
2022/07/06 07:34:04;;;;;;;3.20;1.05;;;17.20;68.30;;;;;;5014602;28;20196;-72
2022/07/06 07:36:33;;;;;;;1.60;1.00;;;17.50;69.70;;;;;;5013841;28;20240;-73
2022/07/06 07:39:00;;;;;;;2.67;0.90;;;17.80;68.60;;;;;;5013228;28;20212;-73
2022/07/06 07:41:27;;;;;;;3.67;1.13;;;17.60;65.20;;;;;;5013338;28;20201;-73
2022/07/06 07:43:54;;;;;;;5.28;1.00;;;17.60;65.90;;;;;;5013407;28;20204;-73
2022/07/06 07:46:20;;;;;;;3.47;1.00;;;17.70;64.30;;;;;;5014464;28;20300;-73
2022/07/06 07:48:47;;;;;;;4.13;1.13;;;17.60;66.10;;;;;;5013170;28;20565;-73
2022/07/06 07:51:14;;;;;;;3.75;1.13;;;17.70;67.60;;;;;;5014363;28;20645;-73
2022/07/06 07:53:43;;;;;;;3.03;1.05;;;17.80;63.20;;;;;;5013289;28;20612;-73
2022/07/06 07:56:10;;;;;;;5.07;1.40;;;17.70;61.00;;;;;;5013419;28;20254;-73
2022/07/06 07:58:37;;;;;;;4.13;1.20;;;17.90;62.60;;;;;;5012920;28;20208;-73
2022/07/06 08:01:05;;;;;;;2.05;1.00;;;17.80;57.80;;;;;;5013697;28;20576;-73
2022/07/06 08:03:32;;;;;;;2.45;1.08;;;17.70;56.60;;;;;;5013092;28;20326;-73
2022/07/06 08:05:59;;;;;;;1.27;0.82;;;17.60;58.10;;;;;;5014008;28;20197;-73
2022/07/06 08:08:26;;;;;;;2.10;1.00;;;17.80;57.90;;;;;;5012918;28;20721;-74
2022/07/06 08:10:54;;;;;;;3.67;1.25;;;18.00;57.30;;;;;;5011905;28;20200;-73
2022/07/06 08:13:21;;;;;;;3.17;0.80;;;18.00;55.90;;;;;;5012774;28;20648;-73
2022/07/06 08:15:48;;;;;;;2.08;0.77;;;18.10;52.80;;;;;;5013584;28;20204;-73
2022/07/06 08:18:15;;;;;;;2.92;0.85;;;18.10;50.20;;;;;;5014938;28;20236;-73
2022/07/06 08:20:42;;;;;;;1.35;0.90;;;18.10;51.00;;;;;;5015343;28;20258;-73
2022/07/06 08:23:09;;;;;;;2.13;0.88;;;18.30;54.00;;;;;;5013365;28;20371;-73
2022/07/06 08:25:36;;;;;;;3.28;0.80;;;18.10;52.10;;;;;;5012141;28;20204;-72
2022/07/06 08:28:04;;;;;;;1.40;0.90;;;18.20;51.40;;;;;;5012540;28;20291;-73
2022/07/06 08:30:34;;;;;;;1.23;0.80;;;18.10;53.40;;;;;;5013223;28;20200;-73
2022/07/06 08:33:01;;;;;;;2.33;0.90;;;18.20;51.30;;;;;;5012825;28;20624;-73
2022/07/06 08:35:28;;;;;;;2.78;0.75;;;18.40;51.30;;;;;;5013432;28;20204;-73
2022/07/06 08:37:55;;;;;;;4.28;1.10;;;18.20;52.70;;;;;;5012596;28;20616;-72
2022/07/06 08:40:23;;;;;;;3.00;0.93;;;18.40;51.60;;;;;;5012748;28;20299;-74
2022/07/06 08:42:53;;;;;;;4.00;1.00;;;18.40;50.70;;;;;;5011376;28;20326;-73
2022/07/06 08:45:22;;;;;;;2.83;0.93;;;18.50;49.50;;;;;;5012043;28;20490;-73
2022/07/06 08:47:50;;;;;;;4.20;0.90;;;18.90;43.90;;;;;;5012112;28;20208;-73
2022/07/06 08:50:17;;;;;;;2.55;0.98;;;18.80;39.40;;;;;;5012040;28;20561;-73
2022/07/06 08:52:45;;;;;;;3.60;0.60;;;18.70;41.50;;;;;;5013148;28;20200;-73
2022/07/06 08:55:13;;;;;;;2.58;1.00;;;18.70;38.30;;;;;;5017311;28;20204;-73
2022/07/06 08:57:40;;;;;;;1.02;0.73;;;18.60;36.60;;;;;;5027548;28;20558;-73
2022/07/06 09:00:08;;;;;;;4.95;0.95;;;18.50;37.80;;;;;;5024924;28;20207;-73
2022/07/06 09:02:37;;;;;;;4.50;0.82;;;18.70;38.10;;;;;;5019742;28;20754;-73
2022/07/06 09:05:05;;;;;;;2.13;1.00;;;18.70;37.70;;;;;;5028501;28;20200;-73
2022/07/06 09:07:33;;;;;;;2.67;1.08;;;18.90;40.00;;;;;;5026037;28;20270;-73
2022/07/06 09:10:01;;;;;;;3.38;1.17;;;18.80;39.90;;;;;;5016429;28;20246;-73
2022/07/06 09:12:28;;;;;;;2.70;0.95;;;18.60;42.60;;;;;;5011480;28;20291;-73
2022/07/06 09:14:56;;;;;;;0.70;0.68;;;18.60;38.50;;;;;;5011508;28;20757;-73
2022/07/06 09:17:28;;;;;;;2.25;0.77;;;18.50;37.10;;;;;;5012125;28;20234;-73
2022/07/06 09:19:57;;;;;;;4.05;0.70;;;18.90;37.50;;;;;;5012048;28;20246;-73
2022/07/06 09:22:31;;;;;;;1.65;0.65;;;19.30;38.40;;;;;;5011275;28;20220;-73
2022/07/06 09:25:04;;;;;;;1.58;0.57;;;19.30;32.50;;;;;;5003340;28;20212;-73
2022/07/06 09:27:31;;;;;;;2.45;0.82;;;19.00;32.30;;;;;;5012365;28;20250;-73
2022/07/06 09:30:01;;;;;;;3.75;0.80;;;19.40;33.70;;;;;;5011933;28;20242;-73
2022/07/06 09:32:28;;;;;;;4.60;0.80;;;19.40;33.70;;;;;;5010691;28;20204;-73
2022/07/06 09:34:56;;;;;;;1.70;0.73;;;19.60;34.60;;;;;;5012099;28;20292;-73
2022/07/06 09:37:24;;;;;;;1.85;0.85;;;19.80;32.00;;;;;;5011130;28;20296;-72
2022/07/06 09:39:51;;;;;;;1.85;1.00;;;19.70;30.10;;;;;;5011985;28;20196;-73
2022/07/06 09:42:26;;;;;;;2.25;0.85;;;19.90;29.70;;;;;;5011845;28;20279;-73
2022/07/06 09:44:54;;;;;;;2.22;0.70;;;20.00;31.20;;;;;;5011133;28;20207;-73
2022/07/06 09:47:21;;;;;;;2.10;0.70;;;19.90;30.70;;;;;;5011239;28;20282;-72
2022/07/06 09:49:49;;;;;;;1.77;0.50;;;19.70;31.60;;;;;;5010922;28;20220;-73
2022/07/06 09:52:17;;;;;;;1.65;0.50;;;19.80;28.00;;;;;;5012334;28;20611;-72
2022/07/06 09:54:49;;;;;;;3.70;0.80;;;19.90;27.20;;;;;;5011892;28;20263;-73
2022/07/06 09:57:16;;;;;;;2.03;0.80;;;20.00;26.90;;;;;;5011281;28;20196;-73
2022/07/06 09:59:50;;;;;;;1.52;0.65;;;20.10;24.20;;;;;;5010514;28;20321;-72
2022/07/06 10:02:17;;;;;;;2.30;0.80;;;20.20;22.10;;;;;;5012359;28;20239;-72
2022/07/06 10:04:46;;;;;;;2.70;0.80;;;19.90;23.90;;;;;;5010933;28;20239;-73
2022/07/06 10:07:14;;;;;;;2.72;1.05;;;19.60;25.50;;;;;;5017477;28;20235;-72
2022/07/06 10:09:42;;;;;;;1.75;1.02;;;19.60;26.30;;;;;;5021945;28;20200;-72
2022/07/06 10:12:15;;;;;;;4.60;1.00;;;19.50;29.20;;;;;;5029270;28;20215;-73
2022/07/06 10:14:43;;;;;;;1.88;0.82;;;19.20;29.30;;;;;;5031425;28;20203;-72
2022/07/06 10:17:10;;;;;;;2.03;1.00;;;19.20;27.30;;;;;;5029997;28;20245;-72
2022/07/06 10:19:38;;;;;;;1.33;0.90;;;19.30;26.20;;;;;;5023820;28;20250;-73
2022/07/06 10:22:05;;;;;;;2.47;0.70;;;19.10;26.50;;;;;;5010904;28;20267;-72
2022/07/06 10:24:34;;;;;;;1.75;0.70;;;19.20;24.60;;;;;;5011846;28;20239;-73
2022/07/06 10:27:03;;;;;;;1.73;0.57;;;19.00;24.30;;;;;;5011268;28;20208;-73
2022/07/06 10:29:31;;;;;;;1.10;0.80;;;19.00;23.80;;;;;;5010583;28;20208;-72
2022/07/06 10:32:00;;;;;;;1.65;0.80;;;19.00;24.00;;;;;;5011601;28;20270;-72
2022/07/06 10:34:27;;;;;;;1.98;0.63;;;18.80;24.50;;;;;;5010554;28;20208;-72
2022/07/06 10:36:55;;;;;;;2.10;0.95;;;19.00;25.60;;;;;;5027840;28;20294;-73
2022/07/06 10:42:49;;;;;;;2.42;0.70;;;19.40;26.20;;;;;;5010423;28;20204;-73
2022/07/06 10:45:32;;;;;;;0.95;0.77;;;19.50;24.80;;;;;;4997773;28;20315;-73
2022/07/06 10:48:17;;;;;;;1.17;0.95;;;19.80;24.90;;;;;;5014431;28;20254;-73
2022/07/06 10:50:49;;;;;;;3.83;0.80;;;19.80;23.60;;;;;;5028679;28;20206;-73
2022/07/06 10:53:17;;;;;;;1.55;0.90;;;20.10;24.50;;;;;;5015472;28;20570;-73
2022/07/06 10:55:47;;;;;;;2.35;0.50;;;19.90;22.60;;;;;;5016395;28;20208;-73
2022/07/06 10:58:35;;;;;;;1.73;0.80;;;20.30;21.70;;;;;;5014531;28;20216;-72
2022/07/06 11:01:02;;;;;;;4.25;1.02;;;20.10;20.40;;;;;;5014020;28;20640;-72
2022/07/06 11:03:40;;;;;;;4.22;0.90;;;20.00;22.10;;;;;;5022955;28;20303;-72
2022/07/06 11:06:13;;;;;;;2.60;0.73;;;20.10;21.90;;;;;;5015289;28;20207;-72
2022/07/06 11:08:58;;;;;;;3.22;1.00;;;20.00;22.50;;;;;;5014806;28;20573;-73
2022/07/06 11:11:26;;;;;;;4.57;1.00;;;19.80;23.50;;;;;;5013839;28;20240;-73
2022/07/06 11:13:57;;;;;;;1.92;0.60;;;19.50;24.20;;;;;;5013762;28;20637;-73
2022/07/06 11:16:27;;;;;;;2.88;1.10;;;19.60;24.90;;;;;;5014997;28;20200;-72
2022/07/06 11:19:02;;;;;;;2.63;1.15;;;19.20;22.90;;;;;;5013843;28;20205;-72
2022/07/06 11:21:41;;;;;;;3.45;0.80;;;19.10;23.70;;;;;;5013755;28;20621;-72
2022/07/06 11:24:10;;;;;;;4.18;0.85;;;19.30;22.50;;;;;;5013513;28;20320;-72
2022/07/06 11:26:38;;;;;;;0.88;0.50;;;19.20;23.80;;;;;;5013788;28;20259;-72
2022/07/06 11:29:08;;;;;;;1.38;0.65;;;19.60;23.30;;;;;;5012708;28;20628;-72
2022/07/06 11:31:37;;;;;;;3.72;0.82;;;19.50;22.70;;;;;;5014737;28;20238;-72
2022/07/06 11:34:05;;;;;;;2.35;0.80;;;19.60;21.90;;;;;;5013829;28;20203;-73
2022/07/06 11:36:32;;;;;;;3.22;0.73;;;19.60;21.40;;;;;;5014587;28;20294;-72
2022/07/06 11:39:00;;;;;;;3.05;1.00;;;20.00;22.20;;;;;;5016965;28;20633;-73
2022/07/06 11:41:27;;;;;;;3.38;0.80;;;20.30;22.40;;;;;;5026194;28;20255;-73
2022/07/06 11:43:54;;;;;;;4.07;0.80;;;21.10;21.90;;;;;;5013777;28;20220;-72
2022/07/06 11:46:29;;;;;;;3.92;0.70;;;20.90;16.30;;;;;;5013965;28;20212;-73
2022/07/06 11:48:57;;;;;;;1.38;0.60;;;21.30;15.70;;;;;;5013361;28;20204;-73
2022/07/06 11:51:25;;;;;;;1.60;0.75;;;21.60;16.90;;;;;;5013847;28;20729;-73
2022/07/06 11:53:54;;;;;;;2.05;0.70;;;21.50;18.30;;;;;;5012404;28;20205;-73
2022/07/06 11:56:25;;;;;;;3.40;0.77;;;21.70;18.60;;;;;;5013554;28;20294;-73
2022/07/06 11:58:53;;;;;;;2.08;0.95;;;21.40;17.30;;;;;;5013091;28;20204;-73
2022/07/06 12:01:21;;;;;;;2.33;0.68;;;21.50;16.70;;;;;;5012483;28;20260;-73
2022/07/06 12:03:51;;;;;;;1.02;0.60;;;21.40;15.50;;;;;;5014031;28;20311;-72
2022/07/06 12:06:20;;;;;;;3.08;0.82;;;21.40;15.00;;;;;;5013493;28;20196;-73
2022/07/06 12:08:49;;;;;;;0.80;0.70;;;21.00;12.90;;;;;;5013982;28;20218;-73
2022/07/06 12:11:23;;;;;;;1.45;0.43;;;21.20;11.80;;;;;;5013531;28;20566;-72
2022/07/06 12:13:52;;;;;;;2.10;0.55;;;20.70;10.00;;;;;;5013316;28;20631;-72
2022/07/06 12:16:19;;;;;;;1.75;0.50;;;20.80;10.50;;;;;;5013747;28;20251;-72
2022/07/06 12:18:49;;;;;;;1.77;0.57;;;20.70;10.80;;;;;;5012857;28;20288;-72
2022/07/06 12:21:21;;;;;;;0.60;0.57;;;20.70;11.80;;;;;;5013359;28;20264;-72
2022/07/06 12:23:49;;;;;;;1.88;0.60;;;20.90;11.50;;;;;;5013164;28;20246;-72
2022/07/06 12:26:19;;;;;;;2.13;0.80;;;21.10;10.80;;;;;;5012653;28;20604;-73
2022/07/06 12:28:46;;;;;;;1.83;0.45;;;21.20;11.10;;;;;;5011858;28;20255;-73
2022/07/06 12:31:33;;;;;;;0.88;0.40;;;21.20;10.80;;;;;;5013538;28;20208;-73
2022/07/06 12:34:01;;;;;;;0.55;0.50;;;21.10;10.20;;;;;;5012483;28;20212;-73
2022/07/06 12:36:28;;;;;;;0.52;0.52;;;21.20;10.90;;;;;;5028190;28;20729;-73
2022/07/06 12:38:56;;;;;;;0.45;0.45;;;21.10;11.00;;;;;;5024802;28;20212;-73
2022/07/06 12:41:31;;;;;;;3.28;0.52;;;21.00;10.80;;;;;;5013098;28;20200;-72
2022/07/06 12:44:09;;;;;;;1.67;0.60;;;21.00;10.60;;;;;;5012456;28;20216;-73
2022/07/06 12:46:37;;;;;;;1.77;0.40;;;21.20;11.70;;;;;;4996207;28;20216;-73
2022/07/06 12:49:14;;;;;;;0.85;0.60;;;21.90;12.50;;;;;;5001962;28;20305;-73
2022/07/06 12:51:59;;;;;;;1.95;0.50;;;21.60;11.70;;;;;;5013630;28;20205;-73
2022/07/06 12:54:29;;;;;;;1.63;0.70;;;21.20;10.50;;;;;;5015771;28;20204;-73
2022/07/06 12:57:05;;;;;;;1.92;0.60;;;20.90;10.10;;;;;;5021056;28;20283;-70
2022/07/06 12:59:34;;;;;;;2.70;0.70;;;21.20;12.30;;;;;;5013761;28;20204;-72
2022/07/06 13:02:01;;;;;;;2.10;0.57;;;21.40;11.50;;;;;;5020563;28;20204;-72